Time;durP1;ratioP1;P1;durP2;ratioP2;P2;SDS_P1;SDS_P2;PMS_P1;PMS_P2;Temp;Humidity;BMP_temperature;BMP_pressure;BME280_temperature;BME280_humidity;BME280_pressure;Samples;Min_cycle;Max_cycle;Signal;HPM_P1;HPM_P2
2022/10/19 00:01:19;;;;;;;4.47;1.15;;;21.80;51.50;;;;;;5053557;28;20043;-49
2022/10/19 00:03:47;;;;;;;1.65;0.65;;;21.80;51.50;;;;;;5055691;28;20067;-51
2022/10/19 00:06:18;;;;;;;3.08;0.93;;;21.80;51.50;;;;;;5053752;28;20376;-48
2022/10/19 00:08:44;;;;;;;2.58;0.85;;;21.80;51.50;;;;;;5051864;28;20035;-46
2022/10/19 00:11:11;;;;;;;2.63;0.93;;;21.80;51.50;;;;;;5054324;28;20025;-50
2022/10/19 00:13:37;;;;;;;2.72;0.70;;;21.80;51.50;;;;;;5055654;28;20368;-46
2022/10/19 00:16:12;;;;;;;1.42;0.65;;;21.80;51.50;;;;;;5054938;28;20040;-50
2022/10/19 00:18:39;;;;;;;2.15;0.80;;;21.70;51.40;;;;;;5052791;28;20349;-49
2022/10/19 00:21:07;;;;;;;1.48;0.70;;;21.80;51.40;;;;;;5055097;28;20060;-45
2022/10/19 00:23:33;;;;;;;1.77;0.88;;;21.70;51.30;;;;;;5055811;28;20025;-50
2022/10/19 00:26:00;;;;;;;2.42;0.98;;;21.70;51.30;;;;;;5055983;28;20335;-49
2022/10/19 00:28:27;;;;;;;2.33;0.70;;;21.70;51.90;;;;;;5055650;28;20133;-50
2022/10/19 00:30:52;;;;;;;2.35;0.80;;;21.70;51.30;;;;;;5052943;28;20029;-47
2022/10/19 00:33:21;;;;;;;1.15;0.60;;;21.70;51.30;;;;;;5054388;28;20035;-48
2022/10/19 00:35:51;;;;;;;4.10;1.00;;;21.70;51.30;;;;;;5053497;28;20029;-46
2022/10/19 00:38:22;;;;;;;3.28;0.80;;;21.70;51.30;;;;;;5055172;28;20040;-47
2022/10/19 00:40:48;;;;;;;2.20;0.70;;;21.70;51.30;;;;;;5053520;28;20045;-51
2022/10/19 00:43:26;;;;;;;3.28;0.98;;;21.70;51.30;;;;;;5055348;28;20048;-47
2022/10/19 00:45:52;;;;;;;2.15;0.88;;;21.70;51.30;;;;;;5055244;28;20021;-46
2022/10/19 00:48:24;;;;;;;2.25;0.80;;;21.70;51.30;;;;;;5053598;28;20375;-45
2022/10/19 00:50:53;;;;;;;2.10;0.70;;;21.70;51.30;;;;;;5055249;28;20029;-45
2022/10/19 00:53:19;;;;;;;3.42;0.93;;;21.70;51.20;;;;;;5054364;28;20052;-48
2022/10/19 00:55:45;;;;;;;2.13;0.70;;;21.70;51.20;;;;;;5055029;28;20112;-47
2022/10/19 00:58:12;;;;;;;1.50;0.70;;;21.70;51.20;;;;;;5054865;28;20037;-48
2022/10/19 01:00:38;;;;;;;1.33;0.70;;;21.70;51.30;;;;;;5055362;28;20108;-46
2022/10/19 01:03:05;;;;;;;1.85;0.75;;;21.60;51.20;;;;;;5053616;28;20125;-48
2022/10/19 01:05:33;;;;;;;2.17;0.70;;;21.60;51.10;;;;;;5053286;28;20086;-47
2022/10/19 01:07:59;;;;;;;2.40;1.10;;;21.60;51.10;;;;;;5054007;28;20025;-48
2022/10/19 01:10:40;;;;;;;1.25;0.57;;;21.60;51.10;;;;;;5053479;28;20497;-49
2022/10/19 01:13:34;;;;;;;1.75;0.82;;;21.60;51.10;;;;;;5054573;28;20425;-47
2022/10/19 01:16:27;;;;;;;2.35;0.73;;;21.60;51.10;;;;;;5023808;28;20040;-51
2022/10/19 01:19:28;;;;;;;2.58;0.93;;;21.60;51.10;;;;;;5044997;28;20040;-50
2022/10/19 01:22:05;;;;;;;1.90;0.65;;;21.60;51.10;;;;;;5051851;28;20309;-47
2022/10/19 01:24:49;;;;;;;2.13;1.00;;;21.60;51.10;;;;;;5055246;28;20040;-47
2022/10/19 01:27:42;;;;;;;3.35;1.00;;;21.60;51.00;;;;;;5054642;28;20116;-49
2022/10/19 01:30:14;;;;;;;2.05;0.82;;;21.60;51.00;;;;;;5043298;28;20438;-50
2022/10/19 01:32:48;;;;;;;4.75;1.00;;;21.60;50.80;;;;;;5053263;28;20112;-48
2022/10/19 01:35:19;;;;;;;;;;;21.60;50.80;;;;;;5055494;28;20098;-48
2022/10/19 01:38:00;;;;;;;1.33;0.60;;;21.60;50.70;;;;;;5051966;28;19917;-49
2022/10/19 01:40:40;;;;;;;1.48;0.63;;;21.60;50.70;;;;;;5054468;28;20044;-48
2022/10/19 01:43:19;;;;;;;3.08;1.00;;;21.60;50.60;;;;;;5055039;28;20094;-50
2022/10/19 01:46:04;;;;;;;1.77;0.80;;;21.50;50.50;;;;;;5053744;28;20037;-46
2022/10/19 01:48:35;;;;;;;1.50;0.68;;;21.50;50.50;;;;;;5053065;28;20044;-50
2022/10/19 01:51:09;;;;;;;2.50;0.77;;;21.50;50.40;;;;;;5042831;28;20096;-47
2022/10/19 01:53:39;;;;;;;;;;;21.60;50.40;;;;;;5053418;28;20036;-53
2022/10/19 01:56:07;;;;;;;2.85;1.13;;;21.50;50.40;;;;;;5056718;28;20267;-48
2022/10/19 01:58:35;;;;;;;2.13;0.80;;;21.60;50.40;;;;;;5058195;28;20041;-49
2022/10/19 02:01:04;;;;;;;2.70;0.80;;;21.50;50.30;;;;;;5057889;28;20044;-46
2022/10/19 02:03:32;;;;;;;1.23;0.40;;;21.50;50.30;;;;;;5058266;28;20025;-46
2022/10/19 02:05:58;;;;;;;1.83;0.60;;;21.60;50.30;;;;;;5055888;28;20036;-51
2022/10/19 02:08:29;;;;;;;2.80;0.70;;;21.50;50.20;;;;;;5056986;28;20033;-47
2022/10/19 02:10:57;;;;;;;2.92;0.70;;;21.60;50.20;;;;;;5058111;28;20350;-50
2022/10/19 02:13:25;;;;;;;1.10;0.60;;;21.60;50.20;;;;;;5057459;28;20049;-49
2022/10/19 02:15:55;;;;;;;1.85;0.70;;;21.60;50.10;;;;;;5058432;28;20107;-47
2022/10/19 02:18:35;;;;;;;1.80;0.80;;;21.60;50.00;;;;;;5055558;28;20166;-48
2022/10/19 02:21:05;;;;;;;2.28;0.75;;;21.60;50.00;;;;;;5056872;28;20028;-46
2022/10/19 02:23:31;;;;;;;1.35;0.50;;;21.60;50.00;;;;;;5058135;28;20067;-47
2022/10/19 02:25:57;;;;;;;2.30;0.80;;;21.60;49.90;;;;;;5057313;28;20060;-49
2022/10/19 02:28:26;;;;;;;1.33;0.57;;;21.60;49.90;;;;;;5056349;28;20035;-47
2022/10/19 02:30:52;;;;;;;0.95;0.50;;;21.60;49.80;;;;;;5057973;28;20037;-49
2022/10/19 02:33:18;;;;;;;1.17;0.60;;;21.60;49.80;;;;;;5057588;28;20360;-49
2022/10/19 02:35:44;;;;;;;1.10;0.50;;;21.60;49.80;;;;;;5057881;28;20037;-48
2022/10/19 02:38:14;;;;;;;1.60;0.57;;;21.60;49.70;;;;;;5057795;28;20048;-50
2022/10/19 02:40:47;;;;;;;1.05;0.45;;;21.60;49.70;;;;;;5053082;28;20082;-51
2022/10/19 02:43:18;;;;;;;1.00;0.50;;;21.60;49.70;;;;;;5056223;28;20033;-49
2022/10/19 02:45:59;;;;;;;1.33;0.47;;;21.60;49.60;;;;;;5056371;28;20372;-48
2022/10/19 02:48:28;;;;;;;1.25;0.50;;;21.60;49.60;;;;;;5057399;28;20097;-50
2022/10/19 02:50:54;;;;;;;2.58;0.35;;;21.60;49.60;;;;;;5056762;28;20037;-47
2022/10/19 02:53:19;;;;;;;1.90;0.50;;;21.60;49.60;;;;;;5056541;28;20103;-50
2022/10/19 02:55:47;;;;;;;3.22;0.50;;;21.60;49.60;;;;;;5056861;28;20032;-46
2022/10/19 02:58:13;;;;;;;2.10;0.57;;;21.60;49.60;;;;;;5057620;28;20037;-46
2022/10/19 03:00:39;;;;;;;1.40;0.52;;;21.60;49.50;;;;;;5055578;28;20036;-46
2022/10/19 03:03:05;;;;;;;1.52;0.63;;;21.60;49.50;;;;;;5056236;28;20043;-47
2022/10/19 03:05:30;;;;;;;0.82;0.57;;;21.60;49.50;;;;;;5056609;28;20358;-50
2022/10/19 03:07:56;;;;;;;1.80;0.68;;;21.60;49.50;;;;;;5057375;28;20061;-48
2022/10/19 03:10:23;;;;;;;1.35;0.60;;;21.60;49.40;;;;;;5055012;28;20029;-48
2022/10/19 03:12:48;;;;;;;0.70;0.47;;;21.60;49.40;;;;;;5056755;28;20057;-46
2022/10/19 03:15:16;;;;;;;1.75;0.50;;;21.60;49.30;;;;;;5055681;28;20130;-47
2022/10/19 03:17:42;;;;;;;2.20;0.60;;;21.60;49.30;;;;;;5056879;28;20064;-47
2022/10/19 03:20:08;;;;;;;1.73;0.50;;;21.60;49.30;;;;;;5052237;28;20060;-50
2022/10/19 03:22:34;;;;;;;1.65;0.43;;;21.60;49.30;;;;;;5056775;28;20037;-45
2022/10/19 03:25:00;;;;;;;1.55;0.40;;;21.60;49.20;;;;;;5054033;28;20106;-48
2022/10/19 03:27:25;;;;;;;1.20;0.50;;;21.60;49.20;;;;;;5056034;28;20029;-47
2022/10/19 03:29:51;;;;;;;1.55;0.50;;;21.60;49.20;;;;;;5056509;28;20098;-49
2022/10/19 03:32:17;;;;;;;1.13;0.47;;;21.60;49.20;;;;;;5056407;28;20067;-51
2022/10/19 03:34:43;;;;;;;1.10;0.50;;;21.60;49.10;;;;;;5055034;28;20339;-50
2022/10/19 03:37:09;;;;;;;0.70;0.30;;;21.60;49.10;;;;;;5055874;28;20029;-50
2022/10/19 03:39:34;;;;;;;2.65;0.70;;;21.60;49.10;;;;;;5054564;28;20140;-48
2022/10/19 03:42:00;;;;;;;1.40;0.40;;;21.60;49.10;;;;;;5056394;28;20029;-47
2022/10/19 03:44:26;;;;;;;1.27;0.50;;;21.60;49.00;;;;;;5056394;28;20314;-46
2022/10/19 03:46:52;;;;;;;1.52;0.47;;;21.60;49.00;;;;;;5055734;28;20032;-47
2022/10/19 03:49:18;;;;;;;1.63;0.52;;;21.60;49.00;;;;;;5056023;28;20085;-46
2022/10/19 03:51:43;;;;;;;1.40;0.60;;;21.60;49.00;;;;;;5055680;28;20109;-47
2022/10/19 03:54:14;;;;;;;2.05;0.50;;;21.50;48.90;;;;;;5055540;28;20028;-48
2022/10/19 03:56:41;;;;;;;2.83;0.50;;;21.50;48.90;;;;;;5055173;28;20025;-48
2022/10/19 03:59:07;;;;;;;0.77;0.40;;;21.50;48.90;;;;;;5056289;28;20108;-49
2022/10/19 04:01:36;;;;;;;1.63;0.60;;;21.50;48.80;;;;;;5055794;28;20048;-50
2022/10/19 04:04:10;;;;;;;1.15;0.43;;;21.60;48.90;;;;;;5056794;28;20179;-47
2022/10/19 04:06:38;;;;;;;1.83;0.40;;;21.50;48.80;;;;;;5055795;28;20021;-52
2022/10/19 04:09:05;;;;;;;1.35;0.32;;;21.60;48.90;;;;;;5051228;28;20033;-50
2022/10/19 04:11:33;;;;;;;1.05;0.40;;;21.50;48.80;;;;;;5055739;28;20322;-46
2022/10/19 04:14:00;;;;;;;1.17;0.32;;;21.50;48.80;;;;;;5055773;28;20119;-47
2022/10/19 04:16:28;;;;;;;2.97;0.70;;;21.60;48.80;;;;;;5053348;28;20037;-48
2022/10/19 04:18:54;;;;;;;1.70;0.45;;;21.60;48.80;;;;;;5053703;28;20427;-45
2022/10/19 04:21:21;;;;;;;1.33;0.50;;;21.60;48.80;;;;;;5054363;28;20109;-45
2022/10/19 04:23:48;;;;;;;1.42;0.50;;;21.60;48.70;;;;;;5055600;28;20338;-47
2022/10/19 04:26:14;;;;;;;1.77;0.63;;;21.50;48.70;;;;;;5054484;28;20102;-46
2022/10/19 04:28:39;;;;;;;2.47;0.65;;;21.50;48.60;;;;;;5054771;28;20029;-49
2022/10/19 04:31:06;;;;;;;1.45;0.50;;;21.60;48.70;;;;;;5055791;28;20468;-45
2022/10/19 04:33:33;;;;;;;1.30;0.30;;;21.50;48.60;;;;;;5053574;28;20036;-49
2022/10/19 04:36:04;;;;;;;0.80;0.40;;;21.50;48.60;;;;;;5055617;28;20352;-45
2022/10/19 04:38:31;;;;;;;0.88;0.40;;;21.50;48.50;;;;;;5055485;28;20392;-45
2022/10/19 04:41:05;;;;;;;3.72;0.50;;;21.50;48.50;;;;;;5055195;28;20029;-46
2022/10/19 04:43:31;;;;;;;0.88;0.40;;;21.50;48.50;;;;;;5055058;28;20029;-46
2022/10/19 04:46:05;;;;;;;2.20;0.70;;;21.50;48.50;;;;;;5054798;28;20063;-46
2022/10/19 04:48:32;;;;;;;0.85;0.50;;;21.50;48.40;;;;;;5053636;28;20049;-46
2022/10/19 04:50:58;;;;;;;0.98;0.45;;;21.50;48.40;;;;;;5055051;28;20033;-46
2022/10/19 04:53:23;;;;;;;1.52;0.60;;;21.50;48.40;;;;;;5053846;28;20123;-50
2022/10/19 04:55:49;;;;;;;2.10;0.45;;;21.50;48.40;;;;;;5054521;28;20033;-48
2022/10/19 04:58:15;;;;;;;1.52;0.30;;;21.50;48.30;;;;;;5053231;28;20065;-45
2022/10/19 05:00:41;;;;;;;0.80;0.47;;;21.50;48.30;;;;;;5055145;28;20028;-46
2022/10/19 05:03:07;;;;;;;2.17;0.70;;;21.50;48.30;;;;;;5054085;28;20107;-48
2022/10/19 05:05:33;;;;;;;1.20;0.60;;;21.50;48.30;;;;;;5054808;28;20029;-47
2022/10/19 05:07:59;;;;;;;1.75;0.57;;;21.50;48.20;;;;;;5053957;28;20033;-45
2022/10/19 05:10:25;;;;;;;0.80;0.47;;;21.50;48.20;;;;;;5052486;28;20033;-47
2022/10/19 05:12:51;;;;;;;1.85;0.50;;;21.50;48.20;;;;;;5054425;28;20122;-48
2022/10/19 05:15:17;;;;;;;1.35;0.50;;;21.50;48.20;;;;;;5053816;28;20031;-48
2022/10/19 05:17:43;;;;;;;2.75;0.73;;;21.40;48.00;;;;;;5054168;28;20437;-51
2022/10/19 05:20:10;;;;;;;1.27;0.75;;;21.50;48.10;;;;;;5052151;28;20068;-46
2022/10/19 05:22:37;;;;;;;0.95;0.40;;;21.50;48.10;;;;;;5054401;28;20376;-48
2022/10/19 05:25:03;;;;;;;1.33;0.52;;;21.50;48.00;;;;;;5053545;28;20342;-48
2022/10/19 05:27:29;;;;;;;0.50;0.40;;;21.50;47.90;;;;;;5056311;28;20037;-48
2022/10/19 05:29:55;;;;;;;1.25;0.47;;;21.50;47.90;;;;;;5057843;28;20117;-48
2022/10/19 05:32:20;;;;;;;2.55;0.75;;;21.50;47.90;;;;;;5058315;28;20040;-48
2022/10/19 05:34:46;;;;;;;1.70;0.40;;;21.40;47.90;;;;;;5059122;28;20158;-47
2022/10/19 05:37:12;;;;;;;1.08;0.40;;;21.40;47.90;;;;;;5057145;28;20086;-47
2022/10/19 05:39:38;;;;;;;0.88;0.57;;;21.40;47.80;;;;;;5058778;28;20044;-48
2022/10/19 05:42:03;;;;;;;0.90;0.50;;;21.50;47.90;;;;;;5057201;28;20147;-49
2022/10/19 05:44:29;;;;;;;1.60;0.50;;;21.40;47.80;;;;;;5057433;28;20025;-49
2022/10/19 05:46:55;;;;;;;2.25;0.85;;;21.40;47.80;;;;;;5058121;28;20033;-50
2022/10/19 05:49:21;;;;;;;2.15;0.50;;;21.40;47.80;;;;;;5057493;28;20449;-52
2022/10/19 05:51:47;;;;;;;1.17;0.45;;;21.40;47.80;;;;;;5057698;28;20126;-46
2022/10/19 05:54:14;;;;;;;0.65;0.45;;;21.40;47.70;;;;;;5058525;28;20033;-52
2022/10/19 05:56:41;;;;;;;1.73;0.50;;;21.40;47.70;;;;;;5056749;28;20029;-52
2022/10/19 05:59:09;;;;;;;1.27;0.40;;;21.40;47.70;;;;;;5055777;28;20056;-46
2022/10/19 06:01:35;;;;;;;0.20;0.20;;;21.40;47.70;;;;;;5058175;28;20125;-51
2022/10/19 06:04:02;;;;;;;0.52;0.40;;;21.40;47.80;;;;;;5057659;28;20074;-47
2022/10/19 06:06:30;;;;;;;1.40;0.57;;;21.40;47.80;;;;;;5057279;28;20441;-52
2022/10/19 06:08:57;;;;;;;5.82;0.40;;;21.40;47.80;;;;;;5056250;28;20445;-51
2022/10/19 06:11:36;;;;;;;1.25;0.40;;;21.40;47.80;;;;;;5058423;28;20045;-49
2022/10/19 06:14:09;;;;;;;1.80;0.43;;;21.40;47.90;;;;;;5055945;28;20101;-46
2022/10/19 06:16:35;;;;;;;0.95;0.50;;;21.40;48.00;;;;;;5039519;28;20126;-50
2022/10/19 06:19:03;;;;;;;1.70;0.50;;;21.40;48.00;;;;;;5043357;28;20036;-48
2022/10/19 06:21:30;;;;;;;2.67;0.63;;;21.40;48.00;;;;;;5056984;28;20123;-51
2022/10/19 06:24:01;;;;;;;2.53;0.60;;;21.40;48.00;;;;;;5057214;28;20485;-47
2022/10/19 06:26:29;;;;;;;1.42;0.70;;;21.40;48.00;;;;;;5057820;28;20063;-49
2022/10/19 06:28:59;;;;;;;2.45;0.70;;;21.40;48.00;;;;;;5052834;28;20028;-49
2022/10/19 06:31:30;;;;;;;2.50;0.68;;;21.40;48.00;;;;;;5052855;28;20044;-51
2022/10/19 06:33:57;;;;;;;3.67;0.80;;;21.40;48.10;;;;;;5056445;28;20017;-48
2022/10/19 06:36:26;;;;;;;3.08;0.77;;;21.40;48.00;;;;;;5055959;28;20428;-48
2022/10/19 06:38:52;;;;;;;1.55;0.50;;;21.40;48.00;;;;;;5053218;28;20044;-52
2022/10/19 06:41:19;;;;;;;0.85;0.45;;;21.40;48.00;;;;;;5056523;28;20033;-48
2022/10/19 06:43:52;;;;;;;2.55;0.63;;;21.40;48.10;;;;;;5053856;28;20337;-46
2022/10/19 06:46:21;;;;;;;1.65;0.65;;;21.40;48.20;;;;;;5047579;28;20033;-52
2022/10/19 06:48:58;;;;;;;2.63;0.85;;;21.40;48.30;;;;;;5056343;28;20104;-50
2022/10/19 06:51:26;;;;;;;4.40;0.80;;;21.40;48.40;;;;;;5056151;28;20061;-48
2022/10/19 06:53:52;;;;;;;3.72;1.10;;;21.40;48.40;;;;;;5055702;28;20448;-53
2022/10/19 06:56:18;;;;;;;7.50;1.55;;;21.40;48.60;;;;;;5054928;28;20367;-46
2022/10/19 06:58:44;;;;;;;8.70;2.20;;;21.40;48.60;;;;;;5056469;28;20044;-51
2022/10/19 07:01:12;;;;;;;6.78;2.00;;;21.40;48.70;;;;;;5056057;28;20128;-49
2022/10/19 07:03:39;;;;;;;7.43;2.17;;;21.40;48.80;;;;;;5053576;28;20440;-47
2022/10/19 07:06:09;;;;;;;6.95;2.80;;;21.40;48.90;;;;;;5054085;28;20380;-50
2022/10/19 07:08:37;;;;;;;6.30;2.42;;;21.40;49.00;;;;;;5055109;28;20348;-48
2022/10/19 07:11:09;;;;;;;7.72;2.00;;;21.40;49.00;;;;;;5056872;28;20075;-53
2022/10/19 07:13:39;;;;;;;7.82;2.38;;;21.40;49.10;;;;;;5056719;28;20456;-48
2022/10/19 07:16:11;;;;;;;7.25;2.17;;;21.40;49.20;;;;;;5055486;28;20029;-52
2022/10/19 07:18:38;;;;;;;4.25;1.70;;;21.40;49.20;;;;;;5054795;28;20045;-50
2022/10/19 07:21:08;;;;;;;6.03;1.70;;;21.40;49.20;;;;;;5055400;28;20037;-53
2022/10/19 07:23:36;;;;;;;4.85;1.42;;;21.40;49.30;;;;;;5056242;28;20056;-49
2022/10/19 07:26:11;;;;;;;5.88;1.70;;;21.40;49.30;;;;;;5055752;28;20107;-52
2022/10/19 07:28:42;;;;;;;6.22;1.70;;;21.40;49.30;;;;;;5055340;28;20032;-50
2022/10/19 07:31:16;;;;;;;4.43;1.52;;;21.40;49.30;;;;;;5064179;28;20040;-50
2022/10/19 07:33:43;;;;;;;6.43;1.48;;;21.40;49.30;;;;;;5050610;28;20025;-49
2022/10/19 07:36:12;;;;;;;4.57;1.45;;;21.40;49.30;;;;;;5036550;28;20182;-47
2022/10/19 07:38:38;;;;;;;7.88;1.95;;;21.40;49.20;;;;;;5052222;28;20139;-49
2022/10/19 07:41:08;;;;;;;5.95;1.73;;;21.40;49.20;;;;;;5054157;28;20042;-48
2022/10/19 07:43:34;;;;;;;5.63;1.40;;;21.40;49.30;;;;;;5056167;28;20044;-49
2022/10/19 07:46:02;;;;;;;4.03;1.73;;;21.40;49.30;;;;;;5055384;28;20107;-49
2022/10/19 07:48:28;;;;;;;6.65;2.08;;;21.40;49.20;;;;;;5054723;28;20048;-52
2022/10/19 07:50:54;;;;;;;3.45;1.25;;;21.40;49.10;;;;;;5054109;28;20364;-49
2022/10/19 07:53:21;;;;;;;6.40;1.52;;;21.40;49.00;;;;;;5057005;28;20039;-48
2022/10/19 07:55:46;;;;;;;3.97;1.40;;;21.40;48.90;;;;;;5056436;28;20099;-52
2022/10/19 07:58:12;;;;;;;5.20;1.63;;;21.40;48.90;;;;;;5056002;28;20452;-49
2022/10/19 08:00:38;;;;;;;4.22;1.42;;;21.40;48.80;;;;;;5056038;28;20043;-51
2022/10/19 08:03:04;;;;;;;5.18;1.10;;;21.40;48.80;;;;;;5054881;28;20043;-49
2022/10/19 08:05:34;;;;;;;4.20;1.30;;;21.40;48.70;;;;;;5055054;28;20356;-49
2022/10/19 08:08:00;;;;;;;3.90;1.23;;;21.40;48.60;;;;;;5054284;28;20025;-47
2022/10/19 08:10:26;;;;;;;5.38;1.55;;;21.40;48.60;;;;;;5054288;28;20051;-51
2022/10/19 08:12:51;;;;;;;2.17;0.85;;;21.40;49.20;;;;;;5056064;28;20045;-48
2022/10/19 08:15:17;;;;;;;3.30;1.02;;;21.40;48.50;;;;;;5054650;28;20041;-52
2022/10/19 08:17:43;;;;;;;4.32;1.35;;;21.40;48.50;;;;;;5053186;28;20094;-48
2022/10/19 08:20:09;;;;;;;3.35;1.10;;;21.30;48.40;;;;;;5053631;28;20033;-53
2022/10/19 08:22:35;;;;;;;3.00;1.00;;;21.40;48.40;;;;;;5055908;28;20033;-51
2022/10/19 08:25:01;;;;;;;4.28;1.20;;;21.40;48.40;;;;;;5056005;28;20445;-53
2022/10/19 08:27:28;;;;;;;2.20;1.15;;;21.40;48.40;;;;;;5055353;28;20368;-49
2022/10/19 08:29:53;;;;;;;2.55;1.00;;;21.30;48.30;;;;;;5055757;28;20029;-53
2022/10/19 08:32:19;;;;;;;3.22;1.13;;;21.30;48.30;;;;;;5055200;28;20329;-48
2022/10/19 08:34:45;;;;;;;3.55;1.05;;;21.30;48.20;;;;;;5054787;28;20032;-49
2022/10/19 08:37:11;;;;;;;2.03;0.90;;;21.30;48.20;;;;;;5055495;28;20029;-48
2022/10/19 08:39:37;;;;;;;2.72;0.88;;;21.30;48.20;;;;;;5053512;28;20045;-48
2022/10/19 08:42:13;;;;;;;4.07;1.10;;;21.30;48.20;;;;;;5053918;28;20029;-53
2022/10/19 08:44:45;;;;;;;1.13;0.68;;;21.30;48.20;;;;;;5050693;28;20075;-51
2022/10/19 08:47:30;;;;;;;2.22;0.85;;;21.30;48.30;;;;;;5052123;28;20032;-47
2022/10/19 08:49:57;;;;;;;2.30;0.98;;;21.30;48.40;;;;;;5053885;28;20036;-49
2022/10/19 08:52:32;;;;;;;2.78;1.13;;;21.30;48.50;;;;;;5054698;28;20041;-51
2022/10/19 08:55:10;;;;;;;2.60;0.75;;;21.20;48.50;;;;;;5038037;28;20030;-51
2022/10/19 08:57:52;;;;;;;2.75;0.95;;;21.30;48.60;;;;;;5043561;28;20075;-48
2022/10/19 09:00:37;;;;;;;3.70;1.13;;;21.20;48.50;;;;;;5054893;28;20381;-48
2022/10/19 09:03:20;;;;;;;1.50;0.73;;;21.30;48.60;;;;;;5054958;28;20037;-49
2022/10/19 09:06:11;;;;;;;1.80;0.67;;;21.20;48.50;;;;;;5053964;28;20511;-51
2022/10/19 09:08:38;;;;;;;1.70;0.70;;;21.20;48.50;;;;;;5043655;28;20295;-50
2022/10/19 09:11:07;;;;;;;3.00;0.82;;;21.20;48.50;;;;;;5054659;28;20062;-51
2022/10/19 09:13:42;;;;;;;2.00;0.80;;;21.20;48.50;;;;;;5045379;28;20050;-48
2022/10/19 09:16:13;;;;;;;2.38;0.82;;;21.20;48.50;;;;;;5050476;28;20037;-54
2022/10/19 09:18:39;;;;;;;1.80;0.80;;;21.20;48.60;;;;;;5052791;28;20458;-49
2022/10/19 09:21:19;;;;;;;1.77;0.85;;;21.20;49.00;;;;;;5049048;28;20048;-47
2022/10/19 09:24:05;;;;;;;2.05;0.80;;;21.20;49.30;;;;;;5051593;28;20025;-50
2022/10/19 09:26:36;;;;;;;1.85;0.80;;;21.20;49.40;;;;;;5052019;28;20035;-49
2022/10/19 09:29:06;;;;;;;1.63;0.73;;;21.20;49.30;;;;;;5052185;28;20068;-49
2022/10/19 09:31:41;;;;;;;4.28;1.02;;;21.20;49.30;;;;;;5050915;28;20096;-46
2022/10/19 09:34:40;;;;;;;3.70;1.20;;;21.30;49.30;;;;;;5051193;28;20029;-61
2022/10/19 09:37:16;;;;;;;3.85;0.82;;;21.20;49.30;;;;;;5052017;28;20090;-49
2022/10/19 09:39:43;;;;;;;3.13;1.23;;;21.20;49.50;;;;;;5054442;28;20055;-47
2022/10/19 09:42:31;;;;;;;3.38;0.98;;;21.30;50.00;;;;;;5054784;28;20046;-47
2022/10/19 09:45:12;;;;;;;2.20;1.10;;;21.30;50.40;;;;;;5054370;28;20029;-49
2022/10/19 09:47:41;;;;;;;4.05;0.98;;;21.30;50.60;;;;;;5054828;28;20025;-52
2022/10/19 09:50:07;;;;;;;2.78;0.90;;;21.30;50.80;;;;;;5053072;28;20563;-51
2022/10/19 09:52:37;;;;;;;4.28;1.08;;;21.30;50.80;;;;;;5054553;28;20357;-53
2022/10/19 09:55:12;;;;;;;4.40;1.33;;;21.40;50.90;;;;;;5054538;28;20063;-49
2022/10/19 09:57:47;;;;;;;3.80;1.00;;;21.40;51.00;;;;;;5053668;28;20105;-49
2022/10/19 10:00:24;;;;;;;2.95;0.88;;;21.40;51.00;;;;;;5054382;28;20033;-50
2022/10/19 10:02:52;;;;;;;1.98;0.70;;;21.40;51.00;;;;;;5054274;28;20029;-51
2022/10/19 10:05:32;;;;;;;1.92;0.77;;;21.50;51.10;;;;;;5052048;28;20024;-48
2022/10/19 10:07:58;;;;;;;1.88;0.90;;;21.50;51.20;;;;;;5054307;28;20102;-49
2022/10/19 10:10:35;;;;;;;2.35;0.90;;;21.50;51.10;;;;;;5038476;28;20048;-50
2022/10/19 10:13:02;;;;;;;4.80;0.98;;;21.50;51.10;;;;;;5052855;28;20041;-49
2022/10/19 10:15:35;;;;;;;2.65;0.80;;;21.50;51.10;;;;;;5056080;28;20049;-51
2022/10/19 10:18:01;;;;;;;3.47;0.80;;;21.60;51.10;;;;;;5056964;28;20044;-53
2022/10/19 10:20:31;;;;;;;3.72;1.10;;;21.60;51.10;;;;;;5053764;28;20032;-49
2022/10/19 10:22:57;;;;;;;1.35;0.63;;;21.60;51.00;;;;;;5056134;28;20099;-49
2022/10/19 10:25:26;;;;;;;3.33;0.90;;;21.60;50.90;;;;;;5057343;28;20040;-50
2022/10/19 10:27:57;;;;;;;3.28;0.90;;;21.60;50.90;;;;;;5055258;28;20111;-48
2022/10/19 10:30:25;;;;;;;2.47;0.68;;;21.70;50.90;;;;;;5054478;28;20036;-49
2022/10/19 10:32:55;;;;;;;2.90;0.70;;;21.70;50.90;;;;;;5053585;28;20029;-52
2022/10/19 10:35:34;;;;;;;1.98;0.98;;;21.70;50.90;;;;;;5042537;28;20025;-47
2022/10/19 10:38:18;;;;;;;2.20;0.73;;;21.70;50.80;;;;;;5056052;28;20052;-51
2022/10/19 10:40:55;;;;;;;2.03;0.70;;;21.70;50.70;;;;;;5055828;28;20041;-47
2022/10/19 10:43:28;;;;;;;1.55;0.70;;;21.80;50.80;;;;;;5048982;28;20056;-49
2022/10/19 10:45:58;;;;;;;2.95;0.85;;;21.80;50.80;;;;;;5055956;28;20033;-46
2022/10/19 10:48:27;;;;;;;2.65;0.75;;;21.80;50.80;;;;;;5056844;28;20103;-46
2022/10/19 10:50:54;;;;;;;1.33;0.60;;;21.80;50.70;;;;;;5056946;28;20029;-49
2022/10/19 10:53:39;;;;;;;2.60;0.68;;;21.90;50.70;;;;;;5056229;28;20388;-50
2022/10/19 10:56:18;;;;;;;1.50;0.70;;;21.90;50.70;;;;;;5046093;28;20033;-46
2022/10/19 10:58:57;;;;;;;1.42;0.70;;;21.90;50.60;;;;;;5056070;28;20033;-50
2022/10/19 11:01:32;;;;;;;1.73;0.70;;;21.90;50.50;;;;;;5055174;28;20025;-49
2022/10/19 11:04:28;;;;;;;2.05;0.55;;;21.90;50.40;;;;;;5052590;28;20037;-49
2022/10/19 11:07:00;;;;;;;2.80;0.70;;;21.90;50.40;;;;;;5056018;28;20033;-47
2022/10/19 11:09:34;;;;;;;2.38;0.80;;;21.90;50.40;;;;;;5047403;28;20169;-55
2022/10/19 11:12:07;;;;;;;2.38;0.68;;;21.90;50.40;;;;;;5050329;28;20095;-49
2022/10/19 11:14:51;;;;;;;1.42;0.60;;;21.90;50.30;;;;;;5049485;28;20068;-51
2022/10/19 11:17:26;;;;;;;3.22;0.68;;;22.00;50.30;;;;;;5050606;28;20037;-47
2022/10/19 11:19:52;;;;;;;5.35;0.80;;;22.00;50.20;;;;;;5048639;28;20086;-51
2022/10/19 11:22:21;;;;;;;1.63;0.50;;;22.00;50.10;;;;;;5048619;28;20033;-48
2022/10/19 11:24:54;;;;;;;1.45;0.50;;;22.00;50.00;;;;;;5050221;28;20116;-50
2022/10/19 11:27:42;;;;;;;2.33;0.67;;;22.00;50.00;;;;;;5050475;28;20459;-50
2022/10/19 11:30:24;;;;;;;1.60;0.85;;;22.00;50.00;;;;;;5050927;28;20021;-52
2022/10/19 11:33:06;;;;;;;1.58;0.50;;;22.00;49.90;;;;;;5053067;28;20037;-53
2022/10/19 11:35:44;;;;;;;3.80;0.70;;;22.00;49.70;;;;;;5054406;28;20169;-53
2022/10/19 11:38:47;;;;;;;3.65;0.75;;;22.10;49.80;;;;;;5056155;28;20465;-50
2022/10/19 11:41:29;;;;;;;3.30;0.60;;;22.10;49.70;;;;;;5054051;28;20033;-52
2022/10/19 11:44:32;;;;;;;2.05;0.60;;;22.10;50.30;;;;;;5052903;28;20025;-47
2022/10/19 11:47:08;;;;;;;2.10;0.82;;;22.10;49.70;;;;;;5051785;28;20056;-55
2022/10/19 11:49:58;;;;;;;1.67;0.55;;;22.10;49.70;;;;;;5057374;28;20453;-52
2022/10/19 11:53:02;;;;;;;2.55;0.77;;;22.10;49.70;;;;;;5051721;28;20341;-47
2022/10/19 11:55:49;;;;;;;4.68;0.90;;;22.10;50.20;;;;;;5025195;28;20048;-49
2022/10/19 11:58:27;;;;;;;2.35;0.90;;;22.20;49.60;;;;;;5049407;28;21445;-50
2022/10/19 12:01:15;;;;;;;1.60;0.70;;;22.20;49.60;;;;;;5046802;28;20444;-49
2022/10/19 12:03:49;;;;;;;0.77;0.57;;;22.20;49.60;;;;;;5051052;28;20040;-51
2022/10/19 12:06:41;;;;;;;0.95;0.60;;;22.20;49.50;;;;;;5050826;28;20056;-47
2022/10/19 12:09:30;;;;;;;2.00;0.70;;;22.20;49.50;;;;;;5048341;28;20041;-48
2022/10/19 12:12:26;;;;;;;1.65;0.70;;;22.30;49.50;;;;;;5048591;28;20021;-49
2022/10/19 12:15:15;;;;;;;1.98;0.50;;;22.30;49.40;;;;;;5047615;28;20360;-48
2022/10/19 12:17:44;;;;;;;2.72;0.88;;;22.30;49.40;;;;;;5048963;28;20036;-51
2022/10/19 12:20:31;;;;;;;1.27;0.60;;;22.30;49.40;;;;;;5047282;28;20400;-53
2022/10/19 12:22:59;;;;;;;1.67;0.70;;;22.30;49.30;;;;;;5048267;28;20086;-51
2022/10/19 12:25:26;;;;;;;2.30;0.70;;;22.30;49.20;;;;;;5050481;28;20043;-46
2022/10/19 12:27:52;;;;;;;1.88;0.50;;;22.30;49.10;;;;;;5050456;28;20098;-50
2022/10/19 12:30:23;;;;;;;2.50;0.82;;;22.30;49.10;;;;;;5050757;28;20037;-48
2022/10/19 12:33:00;;;;;;;2.05;0.60;;;22.30;49.00;;;;;;5056320;28;20068;-49
2022/10/19 12:35:33;;;;;;;4.22;0.70;;;22.40;49.00;;;;;;5046427;28;20033;-50
2022/10/19 12:38:07;;;;;;;1.83;0.70;;;22.40;49.00;;;;;;5049698;28;20171;-52
2022/10/19 12:40:52;;;;;;;1.98;0.52;;;22.40;48.90;;;;;;5053083;28;20029;-51
2022/10/19 12:43:27;;;;;;;2.75;0.80;;;22.40;48.80;;;;;;5044884;28;20456;-54
2022/10/19 12:46:21;;;;;;;1.08;0.43;;;22.40;48.80;;;;;;5048157;28;20033;-51
2022/10/19 12:49:26;;;;;;;1.48;0.50;;;22.40;48.70;;;;;;5048585;28;20652;-50
2022/10/19 12:51:53;;;;;;;1.10;0.50;;;22.40;48.70;;;;;;5047588;28;20029;-51
2022/10/19 12:54:34;;;;;;;4.90;0.52;;;22.50;48.80;;;;;;5051101;28;20033;-54
2022/10/19 12:57:02;;;;;;;1.75;0.60;;;22.50;48.70;;;;;;5048178;28;20159;-51
2022/10/19 12:59:31;;;;;;;1.38;0.50;;;22.50;48.40;;;;;;5048638;28;20094;-49
2022/10/19 13:01:58;;;;;;;2.90;0.77;;;22.50;48.20;;;;;;5046917;28;20021;-51
2022/10/19 13:04:33;;;;;;;2.15;0.73;;;22.50;48.00;;;;;;5056034;28;20409;-50
2022/10/19 13:07:04;;;;;;;1.67;0.52;;;22.50;47.70;;;;;;5075032;28;20110;-53
2022/10/19 13:09:34;;;;;;;1.40;0.52;;;22.50;47.50;;;;;;5062472;28;20036;-50